sensor_id;sensor_type;location;lat;lon;timestamp;temperature;humidity
19972;DHT22;10147;16.402;102.848;2022-12-17T00:02:17;22.20;99.90
19972;DHT22;10147;16.402;102.848;2022-12-17T00:05:08;22.20;99.90
19972;DHT22;10147;16.402;102.848;2022-12-17T00:07:59;22.30;99.90
19972;DHT22;10147;16.402;102.848;2022-12-17T00:10:49;22.30;99.90
19972;DHT22;10147;16.402;102.848;2022-12-17T00:13:39;22.30;99.90
19972;DHT22;10147;16.402;102.848;2022-12-17T00:16:29;22.40;99.90
19972;DHT22;10147;16.402;102.848;2022-12-17T00:19:20;22.30;99.90
19972;DHT22;10147;16.402;102.848;2022-12-17T00:22:11;22.20;99.90
19972;DHT22;10147;16.402;102.848;2022-12-17T00:25:00;22.40;99.90
19972;DHT22;10147;16.402;102.848;2022-12-17T00:27:51;22.40;99.90
19972;DHT22;10147;16.402;102.848;2022-12-17T00:30:41;22.30;99.90
19972;DHT22;10147;16.402;102.848;2022-12-17T00:33:31;22.40;99.90
19972;DHT22;10147;16.402;102.848;2022-12-17T00:36:20;22.30;99.90
19972;DHT22;10147;16.402;102.848;2022-12-17T00:39:11;22.20;99.90
19972;DHT22;10147;16.402;102.848;2022-12-17T00:42:01;22.30;99.90
19972;DHT22;10147;16.402;102.848;2022-12-17T00:44:51;22.40;99.90
19972;DHT22;10147;16.402;102.848;2022-12-17T00:47:41;22.60;99.90
19972;DHT22;10147;16.402;102.848;2022-12-17T00:50:34;22.60;99.90
19972;DHT22;10147;16.402;102.848;2022-12-17T00:53:25;22.60;99.90
19972;DHT22;10147;16.402;102.848;2022-12-17T00:56:14;22.60;99.90
19972;DHT22;10147;16.402;102.848;2022-12-17T00:59:05;22.50;99.90
19972;DHT22;10147;16.402;102.848;2022-12-17T01:01:55;22.50;99.90
19972;DHT22;10147;16.402;102.848;2022-12-17T01:04:46;22.60;99.90
19972;DHT22;10147;16.402;102.848;2022-12-17T01:07:37;22.70;99.90
19972;DHT22;10147;16.402;102.848;2022-12-17T01:10:27;22.70;99.90
19972;DHT22;10147;16.402;102.848;2022-12-17T01:13:18;22.70;99.90
19972;DHT22;10147;16.402;102.848;2022-12-17T01:16:10;22.80;99.90
19972;DHT22;10147;16.402;102.848;2022-12-17T01:19:01;22.90;99.90
19972;DHT22;10147;16.402;102.848;2022-12-17T01:21:51;22.90;99.90
19972;DHT22;10147;16.402;102.848;2022-12-17T01:24:41;22.80;99.90
19972;DHT22;10147;16.402;102.848;2022-12-17T01:27:32;22.90;99.90
19972;DHT22;10147;16.402;102.848;2022-12-17T01:30:23;22.80;99.90
19972;DHT22;10147;16.402;102.848;2022-12-17T01:33:14;23.00;99.90
19972;DHT22;10147;16.402;102.848;2022-12-17T01:36:05;23.00;99.90
19972;DHT22;10147;16.402;102.848;2022-12-17T01:38:56;23.00;99.90
19972;DHT22;10147;16.402;102.848;2022-12-17T01:41:46;23.00;99.90
19972;DHT22;10147;16.402;102.848;2022-12-17T01:44:54;23.00;99.90
19972;DHT22;10147;16.402;102.848;2022-12-17T01:47:51;22.90;99.90
19972;DHT22;10147;16.402;102.848;2022-12-17T01:50:53;23.00;99.90
19972;DHT22;10147;16.402;102.848;2022-12-17T01:53:50;23.00;99.90
19972;DHT22;10147;16.402;102.848;2022-12-17T01:56:43;23.10;99.90
19972;DHT22;10147;16.402;102.848;2022-12-17T01:59:51;23.20;99.90
19972;DHT22;10147;16.402;102.848;2022-12-17T02:02:45;23.30;99.90
19972;DHT22;10147;16.402;102.848;2022-12-17T02:09:24;23.20;99.90
19972;DHT22;10147;16.402;102.848;2022-12-17T02:12:37;23.50;99.90
19972;DHT22;10147;16.402;102.848;2022-12-17T02:15:36;23.50;99.90
19972;DHT22;10147;16.402;102.848;2022-12-17T02:18:39;23.50;99.90
19972;DHT22;10147;16.402;102.848;2022-12-17T02:21:32;23.70;99.90
19972;DHT22;10147;16.402;102.848;2022-12-17T02:24:40;23.70;99.90
19972;DHT22;10147;16.402;102.848;2022-12-17T02:27:33;23.90;99.90
19972;DHT22;10147;16.402;102.848;2022-12-17T02:30:25;23.80;99.90
19972;DHT22;10147;16.402;102.848;2022-12-17T02:33:15;23.80;99.90
19972;DHT22;10147;16.402;102.848;2022-12-17T02:36:08;23.90;99.90
19972;DHT22;10147;16.402;102.848;2022-12-17T02:38:58;23.90;99.90
19972;DHT22;10147;16.402;102.848;2022-12-17T02:41:51;23.90;99.90
19972;DHT22;10147;16.402;102.848;2022-12-17T02:44:43;23.80;99.90
19972;DHT22;10147;16.402;102.848;2022-12-17T02:47:34;23.80;99.90
19972;DHT22;10147;16.402;102.848;2022-12-17T02:50:24;23.80;99.90
19972;DHT22;10147;16.402;102.848;2022-12-17T02:53:15;23.80;99.90
19972;DHT22;10147;16.402;102.848;2022-12-17T02:56:05;23.90;99.90
19972;DHT22;10147;16.402;102.848;2022-12-17T02:58:56;23.90;99.90
19972;DHT22;10147;16.402;102.848;2022-12-17T03:01:50;23.90;99.90
19972;DHT22;10147;16.402;102.848;2022-12-17T03:04:39;24.00;99.90
19972;DHT22;10147;16.402;102.848;2022-12-17T03:07:50;24.10;99.90
19972;DHT22;10147;16.402;102.848;2022-12-17T03:10:40;24.30;99.90
19972;DHT22;10147;16.402;102.848;2022-12-17T03:13:30;24.20;99.90
19972;DHT22;10147;16.402;102.848;2022-12-17T03:16:20;24.30;99.90
19972;DHT22;10147;16.402;102.848;2022-12-17T03:19:10;24.30;99.90
19972;DHT22;10147;16.402;102.848;2022-12-17T03:22:03;24.40;99.90
19972;DHT22;10147;16.402;102.848;2022-12-17T03:24:53;24.60;99.90
19972;DHT22;10147;16.402;102.848;2022-12-17T03:27:43;24.60;99.90
19972;DHT22;10147;16.402;102.848;2022-12-17T03:30:32;24.50;99.90
19972;DHT22;10147;16.402;102.848;2022-12-17T03:33:23;24.70;99.90
19972;DHT22;10147;16.402;102.848;2022-12-17T03:36:13;24.70;99.90
19972;DHT22;10147;16.402;102.848;2022-12-17T03:39:04;24.80;99.90
19972;DHT22;10147;16.402;102.848;2022-12-17T03:41:54;24.90;99.90
19972;DHT22;10147;16.402;102.848;2022-12-17T03:44:45;25.10;99.90
19972;DHT22;10147;16.402;102.848;2022-12-17T03:47:35;24.90;99.90
19972;DHT22;10147;16.402;102.848;2022-12-17T03:50:25;25.10;99.90
19972;DHT22;10147;16.402;102.848;2022-12-17T03:53:15;25.20;99.90
19972;DHT22;10147;16.402;102.848;2022-12-17T03:56:06;25.10;99.90
19972;DHT22;10147;16.402;102.848;2022-12-17T03:58:56;25.20;99.90
19972;DHT22;10147;16.402;102.848;2022-12-17T04:01:46;25.20;99.90
19972;DHT22;10147;16.402;102.848;2022-12-17T04:04:36;25.30;99.90
19972;DHT22;10147;16.402;102.848;2022-12-17T04:07:26;25.40;99.90
19972;DHT22;10147;16.402;102.848;2022-12-17T04:10:16;25.40;99.90
19972;DHT22;10147;16.402;102.848;2022-12-17T04:13:06;25.30;99.90
19972;DHT22;10147;16.402;102.848;2022-12-17T04:15:55;25.20;99.90
19972;DHT22;10147;16.402;102.848;2022-12-17T04:18:46;25.30;99.90
19972;DHT22;10147;16.402;102.848;2022-12-17T04:21:36;25.30;99.90
19972;DHT22;10147;16.402;102.848;2022-12-17T04:24:26;25.50;99.90
19972;DHT22;10147;16.402;102.848;2022-12-17T04:27:16;25.50;99.90
19972;DHT22;10147;16.402;102.848;2022-12-17T04:30:08;25.50;99.90
19972;DHT22;10147;16.402;102.848;2022-12-17T04:32:57;25.60;99.90
19972;DHT22;10147;16.402;102.848;2022-12-17T04:35:47;25.70;99.90
19972;DHT22;10147;16.402;102.848;2022-12-17T04:38:37;25.40;99.90
19972;DHT22;10147;16.402;102.848;2022-12-17T04:41:28;25.40;99.90
19972;DHT22;10147;16.402;102.848;2022-12-17T04:44:17;25.60;99.90
19972;DHT22;10147;16.402;102.848;2022-12-17T04:47:07;25.70;99.90
19972;DHT22;10147;16.402;102.848;2022-12-17T04:49:57;25.70;99.90
19972;DHT22;10147;16.402;102.848;2022-12-17T04:52:47;25.50;99.90
19972;DHT22;10147;16.402;102.848;2022-12-17T04:55:37;25.40;99.90
19972;DHT22;10147;16.402;102.848;2022-12-17T04:58:27;25.40;99.90
19972;DHT22;10147;16.402;102.848;2022-12-17T05:01:17;25.50;99.90
19972;DHT22;10147;16.402;102.848;2022-12-17T05:04:08;25.80;99.90
19972;DHT22;10147;16.402;102.848;2022-12-17T05:06:58;25.80;99.90
19972;DHT22;10147;16.402;102.848;2022-12-17T05:09:48;26.00;99.90
19972;DHT22;10147;16.402;102.848;2022-12-17T05:12:38;26.20;99.90
19972;DHT22;10147;16.402;102.848;2022-12-17T05:15:28;26.30;99.90
19972;DHT22;10147;16.402;102.848;2022-12-17T05:18:20;26.30;99.90
19972;DHT22;10147;16.402;102.848;2022-12-17T05:21:11;26.40;99.90
19972;DHT22;10147;16.402;102.848;2022-12-17T05:24:01;26.50;99.90
19972;DHT22;10147;16.402;102.848;2022-12-17T05:26:51;26.70;99.90
19972;DHT22;10147;16.402;102.848;2022-12-17T05:29:41;26.70;99.90
19972;DHT22;10147;16.402;102.848;2022-12-17T05:32:32;27.10;99.90
19972;DHT22;10147;16.402;102.848;2022-12-17T05:35:22;27.40;99.90
19972;DHT22;10147;16.402;102.848;2022-12-17T05:38:11;27.30;99.90
19972;DHT22;10147;16.402;102.848;2022-12-17T05:41:01;27.40;99.90
19972;DHT22;10147;16.402;102.848;2022-12-17T05:43:51;27.60;99.90
19972;DHT22;10147;16.402;102.848;2022-12-17T05:46:41;27.70;99.90
19972;DHT22;10147;16.402;102.848;2022-12-17T05:49:31;28.00;99.90
19972;DHT22;10147;16.402;102.848;2022-12-17T05:52:24;28.20;99.90
19972;DHT22;10147;16.402;102.848;2022-12-17T05:55:14;28.50;99.90
19972;DHT22;10147;16.402;102.848;2022-12-17T05:58:09;28.20;99.90
19972;DHT22;10147;16.402;102.848;2022-12-17T06:01:02;28.40;99.90
19972;DHT22;10147;16.402;102.848;2022-12-17T06:03:52;28.50;99.90
19972;DHT22;10147;16.402;102.848;2022-12-17T06:06:43;28.40;99.90
19972;DHT22;10147;16.402;102.848;2022-12-17T06:09:33;28.30;99.90
19972;DHT22;10147;16.402;102.848;2022-12-17T06:12:23;28.80;99.90
19972;DHT22;10147;16.402;102.848;2022-12-17T06:15:13;29.00;99.90
19972;DHT22;10147;16.402;102.848;2022-12-17T06:18:03;29.40;99.90
19972;DHT22;10147;16.402;102.848;2022-12-17T06:20:52;29.50;99.90
19972;DHT22;10147;16.402;102.848;2022-12-17T06:23:43;29.50;99.90
19972;DHT22;10147;16.402;102.848;2022-12-17T06:26:33;28.70;99.90
19972;DHT22;10147;16.402;102.848;2022-12-17T06:29:23;28.40;99.90
19972;DHT22;10147;16.402;102.848;2022-12-17T06:32:13;28.50;99.90
19972;DHT22;10147;16.402;102.848;2022-12-17T06:35:04;29.00;99.90
19972;DHT22;10147;16.402;102.848;2022-12-17T06:38:01;28.80;99.90
19972;DHT22;10147;16.402;102.848;2022-12-17T06:40:52;28.60;99.90
19972;DHT22;10147;16.402;102.848;2022-12-17T06:43:41;28.60;99.90
19972;DHT22;10147;16.402;102.848;2022-12-17T06:46:32;28.50;99.90
19972;DHT22;10147;16.402;102.848;2022-12-17T06:49:22;28.30;99.90
19972;DHT22;10147;16.402;102.848;2022-12-17T06:52:13;28.40;99.90
19972;DHT22;10147;16.402;102.848;2022-12-17T06:55:03;28.60;99.90
19972;DHT22;10147;16.402;102.848;2022-12-17T06:57:59;28.50;99.90
19972;DHT22;10147;16.402;102.848;2022-12-17T07:00:52;28.60;99.90
19972;DHT22;10147;16.402;102.848;2022-12-17T07:03:42;28.70;99.90
19972;DHT22;10147;16.402;102.848;2022-12-17T07:06:35;28.30;99.90
19972;DHT22;10147;16.402;102.848;2022-12-17T07:09:25;28.40;99.90
19972;DHT22;10147;16.402;102.848;2022-12-17T07:12:15;28.80;99.90
19972;DHT22;10147;16.402;102.848;2022-12-17T07:15:05;28.80;99.90
19972;DHT22;10147;16.402;102.848;2022-12-17T07:17:58;28.80;99.90
19972;DHT22;10147;16.402;102.848;2022-12-17T07:20:52;28.70;99.90
19972;DHT22;10147;16.402;102.848;2022-12-17T07:23:42;28.60;99.90
19972;DHT22;10147;16.402;102.848;2022-12-17T07:26:32;28.50;99.90
19972;DHT22;10147;16.402;102.848;2022-12-17T07:29:22;28.60;99.90
19972;DHT22;10147;16.402;102.848;2022-12-17T07:32:11;28.30;99.90
19972;DHT22;10147;16.402;102.848;2022-12-17T07:35:02;28.40;99.90
19972;DHT22;10147;16.402;102.848;2022-12-17T07:38:02;28.20;99.90
19972;DHT22;10147;16.402;102.848;2022-12-17T07:40:53;28.20;99.90
19972;DHT22;10147;16.402;102.848;2022-12-17T07:43:42;28.20;99.90
19972;DHT22;10147;16.402;102.848;2022-12-17T07:46:33;28.30;99.90
19972;DHT22;10147;16.402;102.848;2022-12-17T07:49:23;28.20;99.90
19972;DHT22;10147;16.402;102.848;2022-12-17T07:52:13;28.20;99.90
19972;DHT22;10147;16.402;102.848;2022-12-17T07:55:03;28.20;99.90
19972;DHT22;10147;16.402;102.848;2022-12-17T07:58:05;28.10;99.90
19972;DHT22;10147;16.402;102.848;2022-12-17T08:00:59;28.00;99.90
19972;DHT22;10147;16.402;102.848;2022-12-17T08:03:49;28.20;99.90
19972;DHT22;10147;16.402;102.848;2022-12-17T08:06:39;28.20;99.90
19972;DHT22;10147;16.402;102.848;2022-12-17T08:09:37;28.10;99.90
19972;DHT22;10147;16.402;102.848;2022-12-17T08:12:27;27.90;99.90
19972;DHT22;10147;16.402;102.848;2022-12-17T08:15:18;28.00;99.90
19972;DHT22;10147;16.402;102.848;2022-12-17T08:18:08;27.90;99.90
19972;DHT22;10147;16.402;102.848;2022-12-17T08:20:58;27.80;99.90
19972;DHT22;10147;16.402;102.848;2022-12-17T08:23:47;27.50;99.90
19972;DHT22;10147;16.402;102.848;2022-12-17T08:26:37;27.70;99.90
19972;DHT22;10147;16.402;102.848;2022-12-17T08:29:27;27.60;99.90
19972;DHT22;10147;16.402;102.848;2022-12-17T08:32:17;27.60;99.90
19972;DHT22;10147;16.402;102.848;2022-12-17T08:35:07;27.50;99.90
19972;DHT22;10147;16.402;102.848;2022-12-17T08:38:04;27.40;99.90
19972;DHT22;10147;16.402;102.848;2022-12-17T08:40:58;27.50;99.90
19972;DHT22;10147;16.402;102.848;2022-12-17T08:43:48;27.50;99.90
19972;DHT22;10147;16.402;102.848;2022-12-17T08:46:38;27.40;99.90
19972;DHT22;10147;16.402;102.848;2022-12-17T08:49:31;27.30;99.90
19972;DHT22;10147;16.402;102.848;2022-12-17T08:52:21;27.20;99.90
19972;DHT22;10147;16.402;102.848;2022-12-17T08:55:11;27.10;99.90
19972;DHT22;10147;16.402;102.848;2022-12-17T08:58:01;27.10;99.90
19972;DHT22;10147;16.402;102.848;2022-12-17T09:00:51;27.10;99.90
19972;DHT22;10147;16.402;102.848;2022-12-17T09:03:42;27.00;99.90
19972;DHT22;10147;16.402;102.848;2022-12-17T09:06:32;27.00;99.90
19972;DHT22;10147;16.402;102.848;2022-12-17T09:09:21;27.10;99.90
19972;DHT22;10147;16.402;102.848;2022-12-17T09:12:11;27.10;99.90
19972;DHT22;10147;16.402;102.848;2022-12-17T09:15:01;27.10;99.90
19972;DHT22;10147;16.402;102.848;2022-12-17T09:17:51;27.10;99.90
19972;DHT22;10147;16.402;102.848;2022-12-17T09:20:43;27.40;99.90
19972;DHT22;10147;16.402;102.848;2022-12-17T09:23:33;27.50;99.90
19972;DHT22;10147;16.402;102.848;2022-12-17T09:26:24;27.40;99.90
19972;DHT22;10147;16.402;102.848;2022-12-17T09:29:14;27.50;99.90
19972;DHT22;10147;16.402;102.848;2022-12-17T09:32:04;27.60;99.90
19972;DHT22;10147;16.402;102.848;2022-12-17T09:34:54;27.40;99.90
19972;DHT22;10147;16.402;102.848;2022-12-17T09:37:54;27.30;99.90
19972;DHT22;10147;16.402;102.848;2022-12-17T09:40:46;27.20;99.90
19972;DHT22;10147;16.402;102.848;2022-12-17T09:43:51;27.20;99.90
19972;DHT22;10147;16.402;102.848;2022-12-17T09:50:03;26.70;99.90
19972;DHT22;10147;16.402;102.848;2022-12-17T09:52:54;26.70;99.90
19972;DHT22;10147;16.402;102.848;2022-12-17T09:55:52;26.80;99.90
19972;DHT22;10147;16.402;102.848;2022-12-17T09:58:42;26.80;99.90
19972;DHT22;10147;16.402;102.848;2022-12-17T10:01:34;26.70;99.90
19972;DHT22;10147;16.402;102.848;2022-12-17T10:04:37;26.80;99.90
19972;DHT22;10147;16.402;102.848;2022-12-17T10:07:33;26.60;99.90
19972;DHT22;10147;16.402;102.848;2022-12-17T10:10:28;26.40;99.90
19972;DHT22;10147;16.402;102.848;2022-12-17T10:13:21;26.30;99.90
19972;DHT22;10147;16.402;102.848;2022-12-17T10:19:42;26.30;99.90
19972;DHT22;10147;16.402;102.848;2022-12-17T10:22:42;26.40;99.90
19972;DHT22;10147;16.402;102.848;2022-12-17T10:25:34;26.30;99.90
19972;DHT22;10147;16.402;102.848;2022-12-17T10:28:24;26.30;99.90
19972;DHT22;10147;16.402;102.848;2022-12-17T10:31:21;26.10;99.90
19972;DHT22;10147;16.402;102.848;2022-12-17T10:34:15;26.10;99.90
19972;DHT22;10147;16.402;102.848;2022-12-17T10:37:13;26.20;99.90
19972;DHT22;10147;16.402;102.848;2022-12-17T10:40:24;26.10;99.90
19972;DHT22;10147;16.402;102.848;2022-12-17T10:43:37;26.00;99.90
19972;DHT22;10147;16.402;102.848;2022-12-17T10:46:30;25.80;99.90
19972;DHT22;10147;16.402;102.848;2022-12-17T10:49:23;25.80;99.90
19972;DHT22;10147;16.402;102.848;2022-12-17T10:52:33;25.80;99.90
19972;DHT22;10147;16.402;102.848;2022-12-17T10:55:28;25.80;99.90
19972;DHT22;10147;16.402;102.848;2022-12-17T10:58:24;25.70;99.90
19972;DHT22;10147;16.402;102.848;2022-12-17T11:01:25;25.60;99.90
19972;DHT22;10147;16.402;102.848;2022-12-17T11:04:30;25.60;99.90
19972;DHT22;10147;16.402;102.848;2022-12-17T11:07:35;25.50;99.90
19972;DHT22;10147;16.402;102.848;2022-12-17T11:10:29;25.30;99.90
19972;DHT22;10147;16.402;102.848;2022-12-17T11:13:42;25.40;99.90
19972;DHT22;10147;16.402;102.848;2022-12-17T11:16:40;25.40;99.90
19972;DHT22;10147;16.402;102.848;2022-12-17T11:20:00;25.40;99.90
19972;DHT22;10147;16.402;102.848;2022-12-17T11:22:55;25.30;99.90
19972;DHT22;10147;16.402;102.848;2022-12-17T11:26:09;25.30;99.90
19972;DHT22;10147;16.402;102.848;2022-12-17T11:29:01;25.30;99.90
19972;DHT22;10147;16.402;102.848;2022-12-17T11:36:01;25.10;99.90
19972;DHT22;10147;16.402;102.848;2022-12-17T11:39:30;25.20;99.90
19972;DHT22;10147;16.402;102.848;2022-12-17T11:42:30;25.10;99.90
19972;DHT22;10147;16.402;102.848;2022-12-17T11:45:50;25.10;99.90
19972;DHT22;10147;16.402;102.848;2022-12-17T11:52:00;25.00;99.90
19972;DHT22;10147;16.402;102.848;2022-12-17T11:58:32;24.90;99.90
19972;DHT22;10147;16.402;102.848;2022-12-17T12:01:53;24.80;99.90
19972;DHT22;10147;16.402;102.848;2022-12-17T12:12:21;24.70;99.90
19972;DHT22;10147;16.402;102.848;2022-12-17T12:15:42;24.60;99.90
19972;DHT22;10147;16.402;102.848;2022-12-17T12:19:16;24.60;99.90
19972;DHT22;10147;16.402;102.848;2022-12-17T12:25:47;24.50;99.90
19972;DHT22;10147;16.402;102.848;2022-12-17T12:32:44;24.50;99.90
19972;DHT22;10147;16.402;102.848;2022-12-17T12:35:37;24.30;99.90
19972;DHT22;10147;16.402;102.848;2022-12-17T12:38:37;24.30;99.90
19972;DHT22;10147;16.402;102.848;2022-12-17T12:42:01;24.30;99.90
19972;DHT22;10147;16.402;102.848;2022-12-17T12:45:15;24.20;99.90
19972;DHT22;10147;16.402;102.848;2022-12-17T12:48:37;24.20;99.90
19972;DHT22;10147;16.402;102.848;2022-12-17T12:51:33;24.30;99.90
19972;DHT22;10147;16.402;102.848;2022-12-17T12:54:31;24.10;99.90
19972;DHT22;10147;16.402;102.848;2022-12-17T12:57:27;24.00;99.90
19972;DHT22;10147;16.402;102.848;2022-12-17T13:00:33;24.00;99.90
19972;DHT22;10147;16.402;102.848;2022-12-17T13:03:28;23.90;99.90
19972;DHT22;10147;16.402;102.848;2022-12-17T13:06:47;23.80;99.90
19972;DHT22;10147;16.402;102.848;2022-12-17T13:09:48;23.80;99.90
19972;DHT22;10147;16.402;102.848;2022-12-17T13:12:31;23.80;99.90
19972;DHT22;10147;16.402;102.848;2022-12-17T13:15:21;23.70;99.90
19972;DHT22;10147;16.402;102.848;2022-12-17T13:21:25;23.50;99.90
19972;DHT22;10147;16.402;102.848;2022-12-17T13:23:56;23.30;99.90
19972;DHT22;10147;16.402;102.848;2022-12-17T13:26:42;23.30;99.90
19972;DHT22;10147;16.402;102.848;2022-12-17T13:29:33;23.20;99.90
19972;DHT22;10147;16.402;102.848;2022-12-17T13:32:18;23.10;99.90
19972;DHT22;10147;16.402;102.848;2022-12-17T13:35:09;22.90;99.90
19972;DHT22;10147;16.402;102.848;2022-12-17T13:37:58;22.90;99.90
19972;DHT22;10147;16.402;102.848;2022-12-17T13:43:55;22.70;99.90
19972;DHT22;10147;16.402;102.848;2022-12-17T13:46:29;22.60;99.90
19972;DHT22;10147;16.402;102.848;2022-12-17T13:49:05;22.40;99.90
19972;DHT22;10147;16.402;102.848;2022-12-17T13:51:36;22.30;99.90
19972;DHT22;10147;16.402;102.848;2022-12-17T13:54:15;22.20;99.90
19972;DHT22;10147;16.402;102.848;2022-12-17T13:56:46;22.20;99.90
19972;DHT22;10147;16.402;102.848;2022-12-17T13:59:23;22.20;99.90
19972;DHT22;10147;16.402;102.848;2022-12-17T14:01:54;22.20;99.90
19972;DHT22;10147;16.402;102.848;2022-12-17T14:04:27;22.10;99.90
19972;DHT22;10147;16.402;102.848;2022-12-17T14:07:02;22.10;99.90
19972;DHT22;10147;16.402;102.848;2022-12-17T14:09:38;21.90;99.90
19972;DHT22;10147;16.402;102.848;2022-12-17T14:12:14;21.90;99.90
19972;DHT22;10147;16.402;102.848;2022-12-17T14:14:55;21.80;99.90
19972;DHT22;10147;16.402;102.848;2022-12-17T14:17:34;21.90;99.90
19972;DHT22;10147;16.402;102.848;2022-12-17T14:20:22;21.70;99.90
19972;DHT22;10147;16.402;102.848;2022-12-17T14:22:59;21.70;99.90
19972;DHT22;10147;16.402;102.848;2022-12-17T14:25:35;21.70;99.90
19972;DHT22;10147;16.402;102.848;2022-12-17T14:31:25;21.70;99.90
19972;DHT22;10147;16.402;102.848;2022-12-17T14:34:05;21.70;99.90
19972;DHT22;10147;16.402;102.848;2022-12-17T14:36:40;21.50;99.90
19972;DHT22;10147;16.402;102.848;2022-12-17T14:39:24;21.50;99.90
19972;DHT22;10147;16.402;102.848;2022-12-17T14:44:58;21.40;99.90
19972;DHT22;10147;16.402;102.848;2022-12-17T14:47:32;21.20;99.90
19972;DHT22;10147;16.402;102.848;2022-12-17T14:50:24;21.20;99.90
19972;DHT22;10147;16.402;102.848;2022-12-17T14:52:58;21.20;99.90
19972;DHT22;10147;16.402;102.848;2022-12-17T14:55:55;21.10;99.90
19972;DHT22;10147;16.402;102.848;2022-12-17T14:58:26;21.10;99.90
19972;DHT22;10147;16.402;102.848;2022-12-17T15:01:17;21.00;99.90
19972;DHT22;10147;16.402;102.848;2022-12-17T15:03:48;21.10;99.90
19972;DHT22;10147;16.402;102.848;2022-12-17T15:06:20;21.10;99.90
19972;DHT22;10147;16.402;102.848;2022-12-17T15:08:51;20.90;99.90
19972;DHT22;10147;16.402;102.848;2022-12-17T15:11:23;20.70;99.90
19972;DHT22;10147;16.402;102.848;2022-12-17T15:13:53;20.70;99.90
19972;DHT22;10147;16.402;102.848;2022-12-17T15:16:24;20.70;99.90
19972;DHT22;10147;16.402;102.848;2022-12-17T15:18:56;20.50;99.90
19972;DHT22;10147;16.402;102.848;2022-12-17T15:21:27;20.50;99.90
19972;DHT22;10147;16.402;102.848;2022-12-17T15:23:57;20.50;99.90
19972;DHT22;10147;16.402;102.848;2022-12-17T15:26:28;20.50;99.90
19972;DHT22;10147;16.402;102.848;2022-12-17T15:28:59;20.60;99.90
19972;DHT22;10147;16.402;102.848;2022-12-17T15:31:31;20.50;99.90
19972;DHT22;10147;16.402;102.848;2022-12-17T15:34:04;20.40;99.90
19972;DHT22;10147;16.402;102.848;2022-12-17T15:36:35;20.40;99.90
19972;DHT22;10147;16.402;102.848;2022-12-17T15:39:06;20.40;99.90
19972;DHT22;10147;16.402;102.848;2022-12-17T15:41:44;20.30;99.90
19972;DHT22;10147;16.402;102.848;2022-12-17T15:44:34;20.20;99.90
19972;DHT22;10147;16.402;102.848;2022-12-17T15:47:05;20.10;99.90
19972;DHT22;10147;16.402;102.848;2022-12-17T15:49:36;20.00;99.90
19972;DHT22;10147;16.402;102.848;2022-12-17T15:52:07;20.20;99.90
19972;DHT22;10147;16.402;102.848;2022-12-17T15:54:42;20.10;99.90
19972;DHT22;10147;16.402;102.848;2022-12-17T15:57:14;20.10;99.90
19972;DHT22;10147;16.402;102.848;2022-12-17T15:59:46;20.20;99.90
19972;DHT22;10147;16.402;102.848;2022-12-17T16:02:17;20.20;99.90
19972;DHT22;10147;16.402;102.848;2022-12-17T16:04:48;20.10;99.90
19972;DHT22;10147;16.402;102.848;2022-12-17T16:07:20;20.10;99.90
19972;DHT22;10147;16.402;102.848;2022-12-17T16:09:51;20.10;99.90
19972;DHT22;10147;16.402;102.848;2022-12-17T16:12:22;20.10;99.90
19972;DHT22;10147;16.402;102.848;2022-12-17T16:14:53;20.10;99.90
19972;DHT22;10147;16.402;102.848;2022-12-17T16:17:24;20.10;99.90
19972;DHT22;10147;16.402;102.848;2022-12-17T16:19:55;20.10;99.90
19972;DHT22;10147;16.402;102.848;2022-12-17T16:22:27;20.00;99.90
19972;DHT22;10147;16.402;102.848;2022-12-17T16:24:58;20.10;99.90
19972;DHT22;10147;16.402;102.848;2022-12-17T16:27:30;20.00;99.90
19972;DHT22;10147;16.402;102.848;2022-12-17T16:30:01;20.00;99.90
19972;DHT22;10147;16.402;102.848;2022-12-17T16:32:32;20.00;99.90
19972;DHT22;10147;16.402;102.848;2022-12-17T16:35:04;20.00;99.90
19972;DHT22;10147;16.402;102.848;2022-12-17T16:37:36;20.00;99.90
19972;DHT22;10147;16.402;102.848;2022-12-17T16:40:07;20.00;99.90
19972;DHT22;10147;16.402;102.848;2022-12-17T16:42:38;20.00;99.90
19972;DHT22;10147;16.402;102.848;2022-12-17T16:45:09;19.90;99.90
19972;DHT22;10147;16.402;102.848;2022-12-17T16:47:40;19.80;99.90
19972;DHT22;10147;16.402;102.848;2022-12-17T16:50:11;20.00;99.90
19972;DHT22;10147;16.402;102.848;2022-12-17T16:52:41;20.00;99.90
19972;DHT22;10147;16.402;102.848;2022-12-17T16:55:15;20.10;99.90
19972;DHT22;10147;16.402;102.848;2022-12-17T16:57:46;19.90;99.90
19972;DHT22;10147;16.402;102.848;2022-12-17T17:00:17;19.90;99.90
19972;DHT22;10147;16.402;102.848;2022-12-17T17:02:51;19.80;99.90
19972;DHT22;10147;16.402;102.848;2022-12-17T17:05:22;19.90;99.90
19972;DHT22;10147;16.402;102.848;2022-12-17T17:07:52;20.00;99.90
19972;DHT22;10147;16.402;102.848;2022-12-17T17:10:22;19.90;99.90
19972;DHT22;10147;16.402;102.848;2022-12-17T17:12:54;19.90;99.90
19972;DHT22;10147;16.402;102.848;2022-12-17T17:15:26;19.90;99.90
19972;DHT22;10147;16.402;102.848;2022-12-17T17:17:56;19.90;99.90
19972;DHT22;10147;16.402;102.848;2022-12-17T17:20:29;19.90;99.90
19972;DHT22;10147;16.402;102.848;2022-12-17T17:23:02;19.90;99.90
19972;DHT22;10147;16.402;102.848;2022-12-17T17:25:34;19.80;99.90
19972;DHT22;10147;16.402;102.848;2022-12-17T17:28:26;20.00;99.90
19972;DHT22;10147;16.402;102.848;2022-12-17T17:31:04;19.90;99.90
19972;DHT22;10147;16.402;102.848;2022-12-17T17:33:38;20.00;99.90
19972;DHT22;10147;16.402;102.848;2022-12-17T17:36:11;20.00;99.90
19972;DHT22;10147;16.402;102.848;2022-12-17T17:38:42;19.90;99.90
19972;DHT22;10147;16.402;102.848;2022-12-17T17:41:17;19.70;99.90
19972;DHT22;10147;16.402;102.848;2022-12-17T17:44:09;19.90;99.90
19972;DHT22;10147;16.402;102.848;2022-12-17T17:46:41;19.70;99.90
19972;DHT22;10147;16.402;102.848;2022-12-17T17:49:11;19.70;99.90
19972;DHT22;10147;16.402;102.848;2022-12-17T17:51:45;19.60;99.90
19972;DHT22;10147;16.402;102.848;2022-12-17T17:54:38;19.60;99.90
19972;DHT22;10147;16.402;102.848;2022-12-17T17:57:09;19.60;99.90
19972;DHT22;10147;16.402;102.848;2022-12-17T17:59:46;19.70;99.90
19972;DHT22;10147;16.402;102.848;2022-12-17T18:02:16;19.60;99.90